Time;durP1;ratioP1;P1;durP2;ratioP2;P2;SDS_P1;SDS_P2;PMS_P1;PMS_P2;Temp;Humidity;BMP_temperature;BMP_pressure;BME280_temperature;BME280_humidity;BME280_pressure;Samples;Min_cycle;Max_cycle;Signal;HPM_P1;HPM_P2
2022/11/20 00:01:39;;;;;;;15.48;10.60;;;;;;;0.44;100.00;101430.13;5019151;28;20057;-84
2022/11/20 00:04:10;;;;;;;16.05;9.90;;;;;;;0.47;100.00;101419.00;5045092;28;20045;-84
2022/11/20 00:06:40;;;;;;;16.15;10.77;;;;;;;0.48;100.00;101421.69;5054732;28;20098;-85
2022/11/20 00:09:09;;;;;;;12.07;10.15;;;;;;;0.51;100.00;101416.69;5050483;28;20083;-85
2022/11/20 00:11:39;;;;;;;13.98;10.73;;;;;;;0.52;100.00;101409.78;5053230;28;20045;-84
2022/11/20 00:14:09;;;;;;;14.40;10.45;;;;;;;0.53;100.00;101414.13;5033970;28;20037;-84
2022/11/20 00:16:42;;;;;;;14.02;9.93;;;;;;;0.53;100.00;101416.72;5061979;28;20048;-84
2022/11/20 00:19:10;;;;;;;13.60;10.80;;;;;;;0.55;100.00;101418.63;5044261;28;20410;-84
2022/11/20 00:21:38;;;;;;;13.20;9.82;;;;;;;0.54;100.00;101409.03;5033823;28;20041;-84
2022/11/20 00:24:10;;;;;;;13.52;10.60;;;;;;;0.52;100.00;101408.06;5029505;28;20037;-84
2022/11/20 00:26:39;;;;;;;12.07;9.40;;;;;;;0.52;100.00;101410.66;5019705;28;20066;-84
2022/11/20 00:29:10;;;;;;;15.70;10.05;;;;;;;0.52;100.00;101402.00;5038594;28;20034;-85
2022/11/20 00:31:41;;;;;;;11.77;8.68;;;;;;;0.53;100.00;101415.06;5056601;28;20048;-84
2022/11/20 00:34:10;;;;;;;13.48;10.30;;;;;;;0.55;100.00;101413.44;5018573;28;20052;-84
2022/11/20 00:36:40;;;;;;;13.48;10.10;;;;;;;0.52;100.00;101418.44;5052480;28;20053;-84
2022/11/20 00:39:09;;;;;;;13.15;9.82;;;;;;;0.50;100.00;101419.19;5039470;28;20045;-84
2022/11/20 00:41:37;;;;;;;13.75;8.93;;;;;;;0.48;100.00;101419.09;5041926;28;20037;-86
2022/11/20 00:44:06;;;;;;;14.15;9.10;;;;;;;0.46;100.00;101420.72;5042580;28;20044;-86
2022/11/20 00:46:34;;;;;;;12.77;9.93;;;;;;;0.45;100.00;101416.31;5034748;28;20045;-86
2022/11/20 00:49:03;;;;;;;14.85;9.18;;;;;;;0.44;100.00;101418.88;5019737;28;20060;-86
2022/11/20 00:51:32;;;;;;;13.82;9.48;;;;;;;0.42;100.00;101420.44;5039040;28;20068;-84
2022/11/20 00:54:01;;;;;;;12.68;9.88;;;;;;;0.41;100.00;101405.72;5039736;28;20048;-84
2022/11/20 00:56:30;;;;;;;11.18;8.93;;;;;;;0.39;100.00;101409.09;5029777;28;20044;-84
2022/11/20 00:59:00;;;;;;;12.90;9.57;;;;;;;0.38;100.00;101389.19;5035942;28;20042;-84
2022/11/20 01:01:29;;;;;;;11.27;8.95;;;;;;;0.41;100.00;101393.63;5044637;28;20064;-84
2022/11/20 01:04:00;;;;;;;11.95;9.07;;;;;;;0.40;100.00;101397.06;5020291;28;21115;-84
2022/11/20 01:06:35;;;;;;;12.48;9.30;;;;;;;0.37;100.00;101389.09;5025731;28;20041;-85
2022/11/20 01:09:13;;;;;;;11.25;9.13;;;;;;;0.36;100.00;101405.50;5045568;28;20046;-84
2022/11/20 01:11:44;;;;;;;11.57;8.60;;;;;;;0.37;100.00;101407.25;5056695;28;20044;-84
2022/11/20 01:14:19;;;;;;;11.55;8.27;;;;;;;0.38;100.00;101398.69;5067901;28;20055;-84
2022/11/20 01:16:50;;;;;;;12.10;8.77;;;;;;;0.38;100.00;101403.88;5034466;28;20065;-84
2022/11/20 01:19:21;;;;;;;10.63;7.78;;;;;;;0.38;100.00;101404.75;5049185;28;20049;-84
2022/11/20 01:21:52;;;;;;;15.20;9.15;;;;;;;0.37;100.00;101405.53;5034270;28;20072;-84
2022/11/20 01:24:22;;;;;;;11.45;8.63;;;;;;;0.38;100.00;101409.06;5026977;28;20045;-85
2022/11/20 01:26:51;;;;;;;11.43;8.50;;;;;;;0.38;100.00;101402.16;5028870;28;20380;-84
2022/11/20 01:29:24;;;;;;;12.70;8.32;;;;;;;0.39;100.00;101395.25;5020488;28;20056;-84
2022/11/20 01:31:53;;;;;;;12.52;9.15;;;;;;;0.42;100.00;101397.13;5036268;28;20068;-84
2022/11/20 01:34:22;;;;;;;11.10;8.90;;;;;;;0.41;100.00;101388.44;5002762;28;20049;-84
2022/11/20 01:36:52;;;;;;;11.38;8.45;;;;;;;0.41;100.00;101383.28;5034459;28;20457;-85
2022/11/20 01:39:23;;;;;;;13.65;8.18;;;;;;;0.44;100.00;101386.03;5009545;28;20037;-85
2022/11/20 01:44:49;;;;;;;11.60;8.98;;;;;;;0.45;100.00;101376.53;5043840;28;20044;-85
2022/11/20 01:47:25;;;;;;;12.05;9.85;;;;;;;0.44;100.00;101369.59;5027242;28;20037;-85
2022/11/20 01:50:22;;;;;;;11.02;8.55;;;;;;;0.45;100.00;101368.75;5038084;28;20046;-84
2022/11/20 01:53:04;;;;;;;13.57;9.73;;;;;;;0.44;100.00;101362.69;5020060;28;20080;-85
2022/11/20 01:55:39;;;;;;;14.88;9.45;;;;;;;0.46;100.00;101366.25;5044737;28;20045;-84
2022/11/20 01:58:08;;;;;;;11.88;9.18;;;;;;;0.47;100.00;101370.63;5025902;28;20049;-84
2022/11/20 02:00:36;;;;;;;13.15;9.23;;;;;;;0.47;100.00;101360.25;5025884;28;20045;-84
2022/11/20 02:03:12;;;;;;;13.68;8.48;;;;;;;0.48;100.00;101361.16;5013349;28;20040;-85
2022/11/20 02:06:24;;;;;;;13.15;9.15;;;;;;;0.46;100.00;101361.06;5032612;28;20060;-85
2022/11/20 02:08:54;;;;;;;13.60;8.73;;;;;;;0.44;100.00;101354.91;5002078;28;20057;-84
2022/11/20 02:11:22;;;;;;;16.92;9.55;;;;;;;0.44;100.00;101354.03;4955417;28;20046;-84
2022/11/20 02:13:51;;;;;;;9.70;8.10;;;;;;;0.42;100.00;101351.34;5002328;28;20057;-84
2022/11/20 02:16:25;;;;;;;11.98;8.75;;;;;;;0.39;100.00;101339.09;5000379;28;20040;-85
2022/11/20 02:18:56;;;;;;;11.95;8.55;;;;;;;0.39;100.00;101338.22;5034772;28;20037;-84
2022/11/20 02:21:55;;;;;;;10.75;8.48;;;;;;;0.35;100.00;101329.38;5064564;28;20042;-84
2022/11/20 02:24:24;;;;;;;12.13;8.73;;;;;;;0.33;100.00;101324.94;5060940;28;20863;-84
2022/11/20 02:27:06;;;;;;;12.38;8.60;;;;;;;0.30;100.00;101322.19;5036944;28;20044;-84
2022/11/20 02:29:40;;;;;;;11.77;8.40;;;;;;;0.29;100.00;101328.19;5045581;28;20058;-84
2022/11/20 02:32:38;;;;;;;11.82;8.68;;;;;;;0.29;100.00;101329.06;5042123;28;20056;-84
2022/11/20 02:35:30;;;;;;;13.35;8.32;;;;;;;0.29;100.00;101323.91;4994123;28;20053;-84
2022/11/20 02:38:02;;;;;;;12.63;8.77;;;;;;;0.30;100.00;101327.38;5012418;28;20037;-84
2022/11/20 02:40:30;;;;;;;12.55;8.10;;;;;;;0.30;100.00;101322.19;5035175;28;20048;-83
2022/11/20 02:43:00;;;;;;;12.15;9.10;;;;;;;0.28;100.00;101329.00;5053935;28;20061;-84
2022/11/20 02:45:28;;;;;;;9.25;7.93;;;;;;;0.26;100.00;101325.44;5069088;28;20040;-84
2022/11/20 02:47:57;;;;;;;10.68;8.80;;;;;;;0.29;100.00;101331.66;5031246;28;20042;-84
2022/11/20 02:50:25;;;;;;;11.07;8.32;;;;;;;0.30;100.00;101327.38;5063841;28;20575;-84
2022/11/20 02:52:53;;;;;;;12.98;8.68;;;;;;;0.29;100.00;101326.47;5039861;28;20979;-84
2022/11/20 02:55:22;;;;;;;9.40;8.10;;;;;;;0.31;100.00;101318.78;5052574;28;20057;-84
2022/11/20 02:57:50;;;;;;;11.20;8.00;;;;;;;0.33;100.00;101312.88;5034742;28;20045;-87
2022/11/20 03:00:18;;;;;;;10.90;8.20;;;;;;;0.32;100.00;101313.69;5044976;28;20041;-84
2022/11/20 03:02:47;;;;;;;10.45;8.77;;;;;;;0.33;100.00;101312.88;5036583;28;20048;-84
2022/11/20 03:05:15;;;;;;;11.43;8.93;;;;;;;0.36;100.00;101318.22;5031530;28;20061;-84
2022/11/20 03:07:44;;;;;;;11.95;8.20;;;;;;;0.36;100.00;101310.44;5043563;28;20708;-84
2022/11/20 03:10:12;;;;;;;11.90;8.52;;;;;;;0.38;100.00;101305.34;5026561;28;20049;-85
2022/11/20 03:12:40;;;;;;;9.50;8.27;;;;;;;0.36;100.00;101302.66;5034841;28;20052;-84
2022/11/20 03:15:10;;;;;;;11.07;8.02;;;;;;;0.37;100.00;101301.84;5045146;28;20053;-83
2022/11/20 03:17:43;;;;;;;11.18;8.32;;;;;;;0.39;100.00;101302.81;5017800;28;20072;-84
2022/11/20 03:20:12;;;;;;;11.50;8.10;;;;;;;0.43;100.00;101295.19;5024678;28;20046;-84
2022/11/20 03:22:42;;;;;;;9.50;7.45;;;;;;;0.46;100.00;101308.34;5023173;28;20045;-84
2022/11/20 03:25:10;;;;;;;10.57;7.63;;;;;;;0.48;100.00;101299.81;5022590;28;20061;-84
2022/11/20 03:27:38;;;;;;;12.43;8.10;;;;;;;0.49;100.00;101301.59;5044064;28;20613;-84
2022/11/20 03:30:07;;;;;;;8.93;7.38;;;;;;;0.50;100.00;101292.13;5038598;28;20057;-84
2022/11/20 03:32:35;;;;;;;10.95;6.88;;;;;;;0.51;100.00;101297.38;4993124;28;20060;-84
2022/11/20 03:35:04;;;;;;;7.50;6.63;;;;;;;0.48;100.00;101293.75;5018124;28;20057;-84
2022/11/20 03:37:34;;;;;;;8.52;6.50;;;;;;;0.48;100.00;101305.00;5034599;28;20693;-84
2022/11/20 03:40:05;;;;;;;10.43;6.60;;;;;;;0.47;100.00;101295.41;4987957;28;20057;-84
2022/11/20 03:42:45;;;;;;;8.50;6.45;;;;;;;0.48;100.00;101301.53;5016796;28;20398;-84
2022/11/20 03:45:18;;;;;;;9.23;7.10;;;;;;;0.47;100.00;101295.41;5017023;28;20046;-84
2022/11/20 03:47:46;;;;;;;9.57;6.85;;;;;;;0.50;100.00;101299.88;5016305;28;20521;-84
2022/11/20 03:50:15;;;;;;;8.77;6.85;;;;;;;0.51;100.00;101296.47;5062837;28;20049;-85
2022/11/20 03:52:43;;;;;;;7.95;6.47;;;;;;;0.53;100.00;101284.47;5019921;28;20052;-84
2022/11/20 03:55:12;;;;;;;9.27;6.72;;;;;;;0.56;100.00;101298.47;5017072;28;20525;-84
2022/11/20 03:57:42;;;;;;;11.52;6.45;;;;;;;0.61;100.00;101288.34;5034765;28;20033;-84
2022/11/20 04:00:13;;;;;;;8.20;6.75;;;;;;;0.64;100.00;101288.50;5023037;28;20525;-84
2022/11/20 04:02:41;;;;;;;9.27;6.72;;;;;;;0.66;100.00;101276.53;5043277;28;20422;-84
2022/11/20 04:05:10;;;;;;;7.97;7.00;;;;;;;0.70;100.00;101275.84;5041013;28;20052;-84
2022/11/20 04:07:40;;;;;;;8.73;6.72;;;;;;;0.73;100.00;101268.22;5018787;28;20044;-84
2022/11/20 04:10:08;;;;;;;8.40;6.70;;;;;;;0.73;100.00;101267.31;5045453;28;20045;-84
2022/11/20 04:12:37;;;;;;;7.97;6.78;;;;;;;0.74;100.00;101264.81;5023330;28;20040;-84
2022/11/20 04:15:05;;;;;;;9.45;6.63;;;;;;;0.74;100.00;101256.16;5051380;28;20037;-84
2022/11/20 04:17:34;;;;;;;9.23;7.05;;;;;;;0.72;100.00;101256.06;5066929;28;20043;-84
2022/11/20 04:20:04;;;;;;;10.80;7.65;;;;;;;0.70;100.00;101244.72;5040767;28;20182;-85
2022/11/20 04:22:32;;;;;;;8.80;6.88;;;;;;;0.68;100.00;101242.84;5061222;28;20058;-85
2022/11/20 04:25:01;;;;;;;11.60;7.25;;;;;;;0.62;100.00;101240.84;5028555;28;20059;-84
2022/11/20 04:27:30;;;;;;;7.72;6.50;;;;;;;0.58;100.00;101241.50;5032341;28;20041;-85
2022/11/20 04:29:59;;;;;;;10.38;7.95;;;;;;;0.57;100.00;101242.34;5034350;28;20040;-84
2022/11/20 04:32:27;;;;;;;9.20;7.22;;;;;;;0.54;100.00;101234.41;5031605;28;20052;-84
2022/11/20 04:34:56;;;;;;;9.38;7.45;;;;;;;0.52;100.00;101236.91;5035630;28;20056;-84
2022/11/20 04:37:25;;;;;;;9.60;6.80;;;;;;;0.50;100.00;101232.47;5019559;28;20051;-84
2022/11/20 04:39:53;;;;;;;7.78;6.40;;;;;;;0.48;100.00;101232.38;5021933;28;20042;-84
2022/11/20 04:42:31;;;;;;;8.35;6.70;;;;;;;0.49;100.00;101241.03;5007632;28;20076;-84
2022/11/20 04:44:59;;;;;;;7.43;6.15;;;;;;;0.49;100.00;101241.03;5041647;28;20033;-84
2022/11/20 04:47:28;;;;;;;9.40;7.22;;;;;;;0.49;100.00;101241.97;5021877;28;20037;-84
2022/11/20 04:49:56;;;;;;;7.13;5.75;;;;;;;0.50;100.00;101228.16;5012075;28;20073;-84
2022/11/20 04:52:25;;;;;;;8.15;6.25;;;;;;;0.54;100.00;101234.41;5033866;28;20045;-84
2022/11/20 04:54:53;;;;;;;8.23;6.25;;;;;;;0.56;100.00;101231.06;5046368;28;20055;-83
2022/11/20 04:57:21;;;;;;;7.13;5.78;;;;;;;0.60;100.00;101231.22;5057759;28;20041;-83
2022/11/20 04:59:50;;;;;;;8.13;6.43;;;;;;;0.57;100.00;101229.38;5025593;28;20387;-83
2022/11/20 05:02:18;;;;;;;8.43;6.80;;;;;;;0.58;100.00;101220.75;5037881;28;20662;-83
2022/11/20 05:04:47;;;;;;;8.48;6.97;;;;;;;0.60;100.00;101224.31;5057241;28;20049;-84
2022/11/20 05:07:15;;;;;;;7.82;6.65;;;;;;;0.57;100.00;101225.06;5041423;28;20065;-83
2022/11/20 05:09:44;;;;;;;9.20;6.88;;;;;;;0.57;100.00;101219.00;5062694;28;20218;-84
2022/11/20 05:12:13;;;;;;;10.48;7.95;;;;;;;0.57;100.00;101208.63;5044657;28;20045;-84
2022/11/20 05:14:42;;;;;;;11.52;8.85;;;;;;;0.57;100.00;101208.63;5021303;28;20050;-84
2022/11/20 05:17:11;;;;;;;12.27;8.40;;;;;;;0.57;100.00;101208.63;5016351;28;20053;-83
2022/11/20 05:19:40;;;;;;;12.38;8.40;;;;;;;0.56;100.00;101212.91;5039845;28;20049;-87
2022/11/20 05:22:09;;;;;;;9.57;8.55;;;;;;;0.55;100.00;101213.72;5027884;28;20069;-84
2022/11/20 05:24:37;;;;;;;9.27;7.80;;;;;;;0.52;100.00;101213.56;5063384;28;20524;-84
2022/11/20 05:27:05;;;;;;;11.10;8.75;;;;;;;0.52;100.00;101210.09;5049059;28;20055;-84
2022/11/20 05:29:34;;;;;;;10.65;8.88;;;;;;;0.55;100.00;101218.91;5019410;28;20053;-84
2022/11/20 05:32:05;;;;;;;10.18;8.32;;;;;;;0.60;100.00;101216.53;5037339;28;20059;-83
2022/11/20 05:34:34;;;;;;;11.93;9.00;;;;;;;0.62;100.00;101201.94;5029034;28;20056;-83
2022/11/20 05:37:03;;;;;;;13.73;8.90;;;;;;;0.65;100.00;101196.03;5026585;28;20494;-84
2022/11/20 05:39:31;;;;;;;11.43;9.07;;;;;;;0.67;100.00;101192.69;5058242;28;20477;-85
2022/11/20 05:44:51;;;;;;;12.43;8.88;;;;;;;0.71;100.00;101196.31;5032379;28;20044;-86
2022/11/20 05:47:19;;;;;;;14.35;8.98;;;;;;;0.73;100.00;101179.13;5017685;28;20037;-84
2022/11/20 05:49:47;;;;;;;10.82;8.80;;;;;;;0.75;100.00;101182.69;5011249;28;20045;-86
2022/11/20 05:52:16;;;;;;;12.32;8.82;;;;;;;0.75;100.00;101185.28;5033202;28;20048;-86
2022/11/20 05:54:44;;;;;;;12.88;9.35;;;;;;;0.73;100.00;101189.50;5001584;28;20072;-85
2022/11/20 05:57:12;;;;;;;11.05;8.85;;;;;;;0.67;100.00;101182.31;5044045;28;20053;-86
2022/11/20 05:59:41;;;;;;;13.52;9.48;;;;;;;0.67;100.00;101182.31;5051857;28;20029;-86
2022/11/20 06:02:10;;;;;;;12.80;9.63;;;;;;;0.66;100.00;101188.34;5036161;28;20056;-84
2022/11/20 06:04:38;;;;;;;12.18;9.43;;;;;;;0.66;100.00;101179.63;5019661;28;20052;-85
2022/11/20 06:07:07;;;;;;;13.15;9.30;;;;;;;0.64;100.00;101176.97;5042148;28;20506;-85
2022/11/20 06:09:35;;;;;;;11.30;9.40;;;;;;;0.63;100.00;101177.78;5023319;28;20403;-85
2022/11/20 06:12:04;;;;;;;11.93;8.77;;;;;;;0.61;100.00;101182.03;5030121;28;20037;-85
2022/11/20 06:14:32;;;;;;;11.88;8.63;;;;;;;0.61;100.00;101188.91;5052756;28;20054;-85
2022/11/20 06:17:01;;;;;;;11.60;8.85;;;;;;;0.61;100.00;101183.72;5018763;28;20056;-85
2022/11/20 06:19:29;;;;;;;12.98;9.10;;;;;;;0.62;100.00;101186.38;5033165;28;20045;-85
2022/11/20 06:21:58;;;;;;;10.00;8.60;;;;;;;0.62;100.00;101176.00;5032579;28;20060;-85
2022/11/20 06:24:29;;;;;;;12.75;9.23;;;;;;;0.63;100.00;101177.78;5026201;28;20053;-85
2022/11/20 06:26:57;;;;;;;11.77;8.40;;;;;;;0.65;100.00;101177.88;5048266;28;20051;-85
2022/11/20 06:29:26;;;;;;;14.07;9.43;;;;;;;0.64;100.00;101181.28;5039955;28;20536;-85
2022/11/20 06:32:01;;;;;;;12.30;8.85;;;;;;;0.62;100.00;101178.59;5007236;28;20124;-86
2022/11/20 06:34:29;;;;;;;10.95;9.02;;;;;;;0.61;100.00;101179.44;5058805;28;20036;-86
2022/11/20 06:36:58;;;;;;;11.85;8.43;;;;;;;0.63;100.00;101184.69;5039765;28;20063;-86
2022/11/20 06:39:26;;;;;;;14.02;9.77;;;;;;;0.63;100.00;101182.97;5027139;28;20025;-85
2022/11/20 06:41:55;;;;;;;11.98;8.43;;;;;;;0.62;100.00;101176.00;5038999;28;20402;-86
2022/11/20 06:44:26;;;;;;;11.38;8.82;;;;;;;0.64;100.00;101179.56;5043186;28;20552;-85
2022/11/20 06:46:54;;;;;;;14.82;8.88;;;;;;;0.67;100.00;101186.63;5010483;28;20044;-85
2022/11/20 06:49:23;;;;;;;10.70;8.20;;;;;;;0.68;100.00;101186.69;5041759;28;20052;-85
2022/11/20 06:51:52;;;;;;;11.73;8.48;;;;;;;0.72;100.00;101187.75;5027389;28;20402;-85
2022/11/20 06:54:20;;;;;;;11.98;8.68;;;;;;;0.74;100.00;101173.13;5030347;28;20044;-85
2022/11/20 06:56:49;;;;;;;11.95;8.63;;;;;;;0.76;100.00;101177.56;5023444;28;20040;-85
2022/11/20 06:59:18;;;;;;;11.52;8.85;;;;;;;0.78;100.00;101183.72;5074367;28;20041;-85
2022/11/20 07:01:47;;;;;;;11.90;9.05;;;;;;;0.81;100.00;101192.47;5027921;28;20053;-86
2022/11/20 07:04:15;;;;;;;9.30;8.30;;;;;;;0.85;100.00;101191.78;5039911;28;20045;-85
2022/11/20 07:06:43;;;;;;;14.05;9.02;;;;;;;0.87;100.00;101184.97;5021464;28;20040;-85
2022/11/20 07:09:12;;;;;;;11.43;7.82;;;;;;;0.88;100.00;101185.03;5039459;28;20497;-85
2022/11/20 07:11:43;;;;;;;13.35;9.13;;;;;;;0.90;100.00;101198.09;5047394;28;20052;-85
2022/11/20 07:14:11;;;;;;;14.00;9.00;;;;;;;0.91;100.00;101190.41;5017784;28;20037;-85
2022/11/20 07:16:46;;;;;;;11.25;8.20;;;;;;;0.93;100.00;101198.25;5053723;28;20493;-84
2022/11/20 07:19:15;;;;;;;12.15;8.45;;;;;;;0.96;100.00;101196.69;5009600;28;20829;-85
2022/11/20 07:21:43;;;;;;;11.90;8.85;;;;;;;0.96;100.00;101191.50;5037762;28;20363;-85
2022/11/20 07:24:12;;;;;;;14.82;9.00;;;;;;;0.94;100.00;101184.44;5079105;28;20056;-85
2022/11/20 07:26:40;;;;;;;13.40;8.90;;;;;;;0.97;100.00;101195.00;5032269;28;20399;-85
2022/11/20 07:29:10;;;;;;;13.48;9.40;;;;;;;0.94;100.00;101182.72;5054438;28;20040;-85
2022/11/20 07:31:45;;;;;;;10.57;8.35;;;;;;;0.93;100.00;101187.88;5019691;28;20041;-85
2022/11/20 07:34:14;;;;;;;11.93;9.50;;;;;;;0.90;100.00;101187.72;5033171;28;20032;-85
2022/11/20 07:36:42;;;;;;;12.15;8.77;;;;;;;0.85;100.00;101187.50;5049601;28;20052;-84
2022/11/20 07:39:14;;;;;;;11.00;8.02;;;;;;;0.81;100.00;101182.97;5042404;28;20371;-84
2022/11/20 07:41:42;;;;;;;11.35;8.45;;;;;;;0.76;100.00;101174.97;5038844;28;20068;-84
2022/11/20 07:44:11;;;;;;;11.15;8.55;;;;;;;0.73;100.00;101176.53;5014013;28;20042;-83
2022/11/20 07:46:40;;;;;;;10.45;8.30;;;;;;;0.70;100.00;101168.59;5024902;28;20391;-84
2022/11/20 07:49:08;;;;;;;11.65;8.68;;;;;;;0.68;100.00;101171.13;5010567;28;20048;-84
2022/11/20 07:51:37;;;;;;;13.85;8.60;;;;;;;0.68;100.00;101178.91;5058058;28;20041;-86
2022/11/20 07:54:06;;;;;;;12.63;9.00;;;;;;;0.67;100.00;101179.72;5033124;28;20060;-84
2022/11/20 07:56:35;;;;;;;11.95;9.05;;;;;;;0.65;100.00;101176.16;5053519;28;20064;-86
2022/11/20 07:59:03;;;;;;;13.18;9.13;;;;;;;0.64;100.00;101179.56;5026331;28;20036;-86
2022/11/20 08:01:32;;;;;;;11.02;9.07;;;;;;;0.65;100.00;101180.47;5060233;28;20063;-85
2022/11/20 08:04:00;;;;;;;11.10;8.48;;;;;;;0.68;100.00;101184.09;5035589;28;20060;-84
2022/11/20 08:06:29;;;;;;;12.77;9.07;;;;;;;0.69;100.00;101183.28;5048586;28;20041;-86
2022/11/20 08:08:57;;;;;;;13.18;9.55;;;;;;;0.72;100.00;101177.38;5036857;28;20051;-86
2022/11/20 08:14:33;;;;;;;11.40;9.25;;;;;;;0.73;100.00;101173.94;5006281;28;20050;-85
2022/11/20 08:17:01;;;;;;;11.00;8.52;;;;;;;0.74;100.00;101176.59;4999087;28;20056;-86
2022/11/20 08:19:30;;;;;;;13.52;9.93;;;;;;;0.74;100.00;101168.81;5000519;28;22491;-85
2022/11/20 08:21:59;;;;;;;11.02;8.30;;;;;;;0.75;100.00;101178.38;5051684;28;20045;-86
2022/11/20 08:24:27;;;;;;;13.55;9.32;;;;;;;0.78;100.00;101172.47;5008982;28;20045;-86
2022/11/20 08:26:58;;;;;;;12.63;9.02;;;;;;;0.79;100.00;101179.41;5017466;28;20041;-86
2022/11/20 08:29:27;;;;;;;13.25;9.82;;;;;;;0.81;100.00;101167.41;5030361;28;20048;-85
2022/11/20 08:31:55;;;;;;;10.60;8.85;;;;;;;0.84;100.00;101177.94;5039719;28;20037;-85
2022/11/20 08:34:23;;;;;;;11.48;8.85;;;;;;;0.86;100.00;101175.41;5036333;28;20042;-84
2022/11/20 08:36:53;;;;;;;13.57;9.30;;;;;;;0.85;100.00;101174.53;5036866;28;20410;-84
2022/11/20 08:39:21;;;;;;;13.25;9.23;;;;;;;0.88;100.00;101176.38;5010166;28;20041;-85
2022/11/20 08:41:50;;;;;;;11.38;9.13;;;;;;;0.91;100.00;101176.53;5016480;28;20033;-84
2022/11/20 08:44:18;;;;;;;13.98;8.60;;;;;;;0.91;100.00;101181.72;5008991;28;20041;-85
2022/11/20 08:46:47;;;;;;;11.88;9.60;;;;;;;0.94;100.00;101174.06;5031271;28;20040;-85
2022/11/20 08:49:15;;;;;;;12.20;9.65;;;;;;;0.96;100.00;101178.53;5035295;28;20460;-85
2022/11/20 08:51:44;;;;;;;12.57;9.20;;;;;;;0.99;100.00;101182.09;5025852;28;20056;-85
2022/11/20 08:54:15;;;;;;;12.60;9.50;;;;;;;1.03;100.00;101179.69;5027811;28;20052;-84
2022/11/20 08:56:43;;;;;;;11.75;9.45;;;;;;;1.07;100.00;101191.13;5034070;28;20395;-85
2022/11/20 08:59:12;;;;;;;10.55;9.35;;;;;;;1.11;100.00;101191.31;5012323;28;20146;-85
2022/11/20 09:02:01;;;;;;;11.90;9.20;;;;;;;1.11;100.00;101175.75;5030924;28;20037;-85
2022/11/20 09:04:33;;;;;;;10.05;8.05;;;;;;;1.14;100.00;101169.81;4983255;28;20067;-85
2022/11/20 09:07:03;;;;;;;11.05;8.70;;;;;;;1.15;100.00;101166.41;5034260;28;20038;-85
2022/11/20 09:09:32;;;;;;;13.60;9.68;;;;;;;1.15;100.00;101166.41;5037364;28;20046;-86
2022/11/20 09:12:01;;;;;;;12.68;9.32;;;;;;;1.17;100.00;101172.53;5052247;28;20056;-83
2022/11/20 09:14:30;;;;;;;11.82;9.07;;;;;;;1.17;100.00;101167.34;5031036;28;20442;-85
2022/11/20 09:16:58;;;;;;;12.20;9.23;;;;;;;1.19;100.00;101170.03;5039844;28;20029;-85
2022/11/20 09:19:26;;;;;;;11.70;8.75;;;;;;;1.22;100.00;101170.19;5008479;28;20561;-85
2022/11/20 09:22:04;;;;;;;12.20;8.35;;;;;;;1.22;100.00;101157.19;5035799;28;20057;-86
2022/11/20 09:24:32;;;;;;;11.25;8.80;;;;;;;1.26;100.00;101153.91;5016002;28;20056;-85
2022/11/20 09:27:03;;;;;;;13.57;9.05;;;;;;;1.31;100.00;101149.84;5038776;28;20045;-86
2022/11/20 09:29:32;;;;;;;12.35;8.98;;;;;;;1.35;100.00;101150.03;5041411;28;20056;-85
2022/11/20 09:32:00;;;;;;;10.63;8.75;;;;;;;1.40;100.00;101149.34;5055708;28;20049;-85
2022/11/20 09:34:29;;;;;;;10.23;8.25;;;;;;;1.44;100.00;101146.97;5022873;28;20080;-85
2022/11/20 09:36:57;;;;;;;10.40;8.25;;;;;;;1.46;100.00;101147.03;5056627;28;20041;-85
2022/11/20 09:39:31;;;;;;;9.95;7.97;;;;;;;1.48;100.00;101137.59;5031441;28;20036;-85
2022/11/20 09:42:33;;;;;;;9.98;8.35;;;;;;;1.52;100.00;101135.19;5024659;28;20033;-85
2022/11/20 09:45:20;;;;;;;10.75;7.53;;;;;;;1.58;100.00;101129.38;5046880;28;20421;-85
2022/11/20 09:48:14;;;;;;;10.48;8.52;;;;;;;1.61;100.00;101128.63;5038453;28;20037;-85
2022/11/20 09:50:49;;;;;;;8.52;6.80;;;;;;;1.63;100.00;101134.81;5028258;28;20072;-85
2022/11/20 09:53:40;;;;;;;9.50;6.97;;;;;;;1.67;100.00;101129.78;5030894;28;20065;-85
2022/11/20 09:56:10;;;;;;;10.38;7.72;;;;;;;1.71;100.00;101130.81;5047663;28;20040;-85
2022/11/20 09:58:45;;;;;;;12.35;8.25;;;;;;;1.73;100.00;101130.06;5037281;28;20050;-85
2022/11/20 10:01:42;;;;;;;8.98;7.82;;;;;;;1.74;100.00;101128.38;5038403;28;20034;-85
2022/11/20 10:04:18;;;;;;;9.43;8.20;;;;;;;1.78;100.00;101121.56;4997720;28;20053;-85
2022/11/20 10:06:59;;;;;;;10.82;8.90;;;;;;;1.82;100.00;101124.38;5045430;28;20056;-85
2022/11/20 10:09:54;;;;;;;10.60;8.48;;;;;;;1.87;100.00;101116.75;5041961;28;20044;-84
2022/11/20 10:13:00;;;;;;;10.98;7.82;;;;;;;1.92;100.00;101126.53;5048948;28;20054;-86
2022/11/20 10:15:56;;;;;;;12.20;8.77;;;;;;;2.00;100.00;101121.66;5057002;28;20045;-85
2022/11/20 10:18:43;;;;;;;10.18;8.60;;;;;;;1.99;100.00;101117.31;5028479;28;20045;-84
2022/11/20 10:21:50;;;;;;;12.02;8.68;;;;;;;2.00;100.00;101108.66;5042060;28;20038;-85
2022/11/20 10:24:23;;;;;;;10.93;8.38;;;;;;;2.03;100.00;101108.81;5026296;28;20048;-85
2022/11/20 10:26:58;;;;;;;11.20;8.63;;;;;;;2.05;100.00;101116.69;5036020;28;20041;-85
2022/11/20 10:29:36;;;;;;;10.63;8.68;;;;;;;2.09;100.00;101113.38;5021764;28;20049;-83
2022/11/20 10:32:14;;;;;;;9.65;7.80;;;;;;;2.09;100.00;101108.19;5052811;28;20044;-87
2022/11/20 10:34:59;;;;;;;10.20;8.30;;;;;;;2.11;100.00;101104.81;5030036;28;20038;-86
2022/11/20 10:37:31;;;;;;;10.27;8.43;;;;;;;2.18;100.00;101105.09;5049006;28;20051;-86
2022/11/20 10:40:19;;;;;;;10.30;7.65;;;;;;;2.24;100.00;101090.59;5071374;28;20060;-87
2022/11/20 10:42:55;;;;;;;9.27;7.93;;;;;;;2.29;100.00;101096.88;5027512;28;20037;-86
2022/11/20 10:45:24;;;;;;;14.38;8.93;;;;;;;2.35;100.00;101083.25;5077041;28;20052;-86
2022/11/20 10:48:27;;;;;;;8.80;7.22;;;;;;;2.43;100.00;101089.63;5062085;28;20036;-87
2022/11/20 10:51:14;;;;;;;10.75;8.13;;;;;;;2.50;100.00;101089.06;5037487;28;20385;-86
2022/11/20 10:54:00;;;;;;;35.17;8.48;;;;;;;2.57;100.00;101085.00;5067692;28;20036;-85
2022/11/20 10:56:41;;;;;;;9.57;7.65;;;;;;;2.62;100.00;101093.84;5051075;28;20036;-83
2022/11/20 10:59:45;;;;;;;9.85;8.25;;;;;;;2.65;100.00;101080.09;5028762;28;20398;-87
2022/11/20 11:02:32;;;;;;;11.65;7.95;;;;;;;2.68;100.00;101083.66;5059714;28;20032;-86
2022/11/20 11:05:32;;;;;;;9.20;7.45;;;;;;;2.72;100.00;101072.59;5037172;28;20057;-86
2022/11/20 11:08:00;;;;;;;8.98;7.00;;;;;;;2.78;100.00;101073.63;5036481;28;20041;-86
2022/11/20 11:10:41;;;;;;;8.50;6.90;;;;;;;2.84;100.00;101073.88;5060809;28;20045;-86
2022/11/20 11:13:28;;;;;;;7.90;7.10;;;;;;;2.90;100.00;101076.72;5036734;28;20041;-86
2022/11/20 11:15:57;;;;;;;9.75;7.63;;;;;;;2.95;100.00;101063.84;5045410;28;20033;-87
2022/11/20 11:18:30;;;;;;;8.48;6.97;;;;;;;2.98;100.00;101061.38;5046966;28;20049;-87
2022/11/20 11:21:03;;;;;;;10.18;7.07;;;;;;;3.02;100.00;101060.66;5029335;28;20044;-88
2022/11/20 11:23:38;;;;;;;9.77;7.35;;;;;;;3.07;100.00;101064.31;5048548;28;20036;-87
2022/11/20 11:26:20;;;;;;;9.40;7.10;;;;;;;3.03;100.00;101062.44;5055152;28;20490;-87
2022/11/20 11:28:56;;;;;;;8.88;6.88;;;;;;;3.03;100.00;101060.72;5044166;28;20045;-87
2022/11/20 11:31:33;;;;;;;8.80;6.90;;;;;;;3.06;100.00;101058.25;5032949;28;20387;-86
2022/11/20 11:34:13;;;;;;;8.77;7.03;;;;;;;3.11;100.00;101053.19;5033345;28;20065;-86
2022/11/20 11:36:57;;;;;;;;;;;;;;;3.12;100.00;101048.03;5038961;28;20037;-86
2022/11/20 11:39:28;;;;;;;12.13;7.45;;;;;;;3.13;100.00;101047.19;5057280;28;19921;-87
2022/11/20 11:41:58;;;;;;;8.40;6.93;;;;;;;3.14;100.00;101058.53;5035456;28;20052;-86
2022/11/20 11:47:30;;;;;;;8.05;6.57;;;;;;;3.19;100.00;101058.66;5055164;28;20017;-86
2022/11/20 11:50:11;;;;;;;7.50;6.53;;;;;;;3.21;100.00;101046.59;5044872;28;20045;-86
2022/11/20 11:52:51;;;;;;;10.02;7.75;;;;;;;3.20;100.00;101045.72;5057551;28;20605;-86
2022/11/20 11:55:31;;;;;;;10.30;7.57;;;;;;;3.21;100.00;101039.66;5051182;28;20406;-86